createdAt,value
2023-03-21T00:00:47.704Z,4.0615
2023-03-21T00:01:49.160Z,4.2154
2023-03-21T00:02:50.663Z,4.3385
2023-03-21T00:03:52.096Z,4.2077
2023-03-21T00:04:55.094Z,3.6231
2023-03-21T00:05:54.943Z,4.2462
2023-03-21T00:06:56.330Z,3.7923
2023-03-21T00:07:57.793Z,3.8846
2023-03-21T00:08:59.211Z,4.1231
2023-03-21T00:10:12.385Z,4.2538
2023-03-21T00:11:02.098Z,4.8769
2023-03-21T00:12:03.521Z,4.2923
2023-03-21T00:13:04.962Z,4.0846
2023-03-21T00:14:06.403Z,4.2615
2023-03-21T00:15:07.835Z,4.5462
2023-03-21T00:16:20.469Z,4.2462
2023-03-21T00:17:10.710Z,4.5154
2023-03-21T00:18:12.160Z,4.6538
2023-03-21T00:19:13.584Z,3.4308
2023-03-21T00:20:15.092Z,3.6154
2023-03-21T00:21:40.687Z,3.8462
2023-03-21T00:22:17.905Z,3.3692
2023-03-21T00:23:19.337Z,3.6000
2023-03-21T00:24:20.788Z,4.7615
2023-03-21T00:25:22.222Z,3.8154
2023-03-21T00:26:23.673Z,4.4385
2023-03-21T00:27:56.927Z,3.8692
2023-03-21T00:28:26.549Z,3.8846
2023-03-21T00:29:27.988Z,3.7077
2023-03-21T00:30:29.432Z,4.3154
2023-03-21T00:31:30.863Z,4.1231
2023-03-21T00:32:35.593Z,4.0000
2023-03-21T00:33:33.754Z,4.0308
2023-03-21T00:34:43.205Z,4.5077
2023-03-21T00:36:01.806Z,5.6000
2023-03-21T00:36:38.256Z,3.9769
2023-03-21T00:37:39.605Z,3.6231
2023-03-21T00:38:41.041Z,3.5692
2023-03-21T00:39:42.483Z,4.0077
2023-03-21T00:40:49.169Z,3.8385
2023-03-21T00:41:45.403Z,3.8846
2023-03-21T00:42:46.796Z,4.1769
2023-03-21T00:43:48.216Z,3.8154
2023-03-21T00:44:49.671Z,4.3462
2023-03-21T00:45:51.147Z,3.7000
2023-03-21T00:47:06.193Z,4.2308
2023-03-21T00:47:54.138Z,3.9923
2023-03-21T00:48:55.496Z,4.3000
2023-03-21T00:49:56.840Z,3.6154
2023-03-21T00:50:58.314Z,3.6462
2023-03-21T00:52:14.790Z,3.6308
2023-03-21T00:53:01.164Z,4.1385
2023-03-21T00:54:02.594Z,4.0000
2023-03-21T00:55:04.047Z,3.8000
2023-03-21T00:56:05.485Z,4.2615
2023-03-21T00:57:06.919Z,4.3385
2023-03-21T00:58:08.393Z,4.0154
2023-03-21T00:59:09.805Z,3.8308
2023-03-21T01:00:11.229Z,3.9385
2023-03-21T01:01:12.704Z,3.8000
2023-03-21T01:02:14.159Z,3.0846
2023-03-21T01:03:24.506Z,3.8385
2023-03-21T01:04:17.166Z,3.4154
2023-03-21T01:05:18.442Z,4.5615
2023-03-21T01:06:19.866Z,4.3769
2023-03-21T01:07:21.318Z,3.7231
2023-03-21T01:08:29.411Z,3.6000
2023-03-21T01:09:24.214Z,3.6538
2023-03-21T01:10:25.632Z,4.3538
2023-03-21T01:11:27.084Z,3.8462
2023-03-21T01:12:28.525Z,4.2231
2023-03-21T01:13:29.956Z,3.4923
2023-03-21T01:14:31.401Z,4.3615
2023-03-21T01:15:32.834Z,3.3923
2023-03-21T01:16:34.379Z,3.8231
2023-03-21T01:17:35.731Z,3.7538
2023-03-21T01:18:37.142Z,4.0615
2023-03-21T01:19:51.301Z,3.3769
2023-03-21T01:20:40.031Z,3.2846
2023-03-21T01:21:41.491Z,3.0385
2023-03-21T01:22:42.897Z,3.7538
2023-03-21T01:23:44.349Z,3.7462
2023-03-21T01:24:54.115Z,3.3615
2023-03-21T01:25:47.223Z,4.1923
2023-03-21T01:26:48.666Z,4.7923
2023-03-21T01:27:50.108Z,3.6231
2023-03-21T01:28:51.534Z,3.8462
2023-03-21T01:29:52.991Z,3.8692
2023-03-21T01:30:54.415Z,3.5231
2023-03-21T01:31:55.953Z,4.0308
2023-03-21T01:32:57.292Z,3.5385
2023-03-21T01:33:58.734Z,3.9615
2023-03-21T01:35:00.173Z,3.6077
2023-03-21T01:36:12.160Z,3.4769
2023-03-21T01:37:03.081Z,3.9077
2023-03-21T01:38:04.496Z,3.9769
2023-03-21T01:39:05.926Z,3.7231
2023-03-21T01:40:07.370Z,3.7231
2023-03-21T01:41:18.892Z,4.3692
2023-03-21T01:42:10.249Z,3.5846
2023-03-21T01:43:11.681Z,4.3077
2023-03-21T01:44:13.123Z,4.5923
2023-03-21T01:45:14.565Z,3.6231
2023-03-21T01:46:16.040Z,3.8846
2023-03-21T01:47:17.461Z,3.9077
2023-03-21T01:48:18.902Z,5.5923
2023-03-21T01:49:20.305Z,7.4923
2023-03-21T01:50:21.749Z,3.8000
2023-03-21T01:51:23.185Z,4.3077
2023-03-21T01:52:37.195Z,4.2462
2023-03-21T01:53:26.067Z,4.5615
2023-03-21T01:54:27.505Z,3.6692
2023-03-21T01:55:28.940Z,4.2692
2023-03-21T01:56:30.397Z,3.5462
2023-03-21T01:57:40.962Z,4.0538
2023-03-21T01:58:33.330Z,3.2615
2023-03-21T01:59:34.702Z,3.5385
2023-03-21T02:00:36.138Z,3.8692
2023-03-21T02:01:37.576Z,3.4077
2023-03-21T02:02:39.019Z,3.2923
2023-03-21T02:03:40.500Z,3.6615
2023-03-21T02:04:41.900Z,3.7231
2023-03-21T02:05:43.326Z,4.0154
2023-03-21T02:06:44.782Z,4.1769
2023-03-21T02:07:46.200Z,4.1462
2023-03-21T02:08:47.649Z,3.5231
2023-03-21T02:09:49.086Z,3.4231
2023-03-21T02:10:50.696Z,3.5462
2023-03-21T02:11:51.999Z,3.2692
2023-03-21T02:12:53.407Z,3.4231
2023-03-21T02:14:05.670Z,3.8308
2023-03-21T02:14:56.283Z,4.2769
2023-03-21T02:15:57.716Z,3.4846
2023-03-21T02:16:59.219Z,3.8231
2023-03-21T02:18:00.582Z,3.4615
2023-03-21T02:19:02.038Z,4.2308
2023-03-21T02:20:03.468Z,3.8385
2023-03-21T02:21:04.899Z,3.3615
2023-03-21T02:22:06.325Z,3.1692
2023-03-21T02:23:07.773Z,3.8077
2023-03-21T02:24:09.210Z,3.3923
2023-03-21T02:25:21.269Z,3.8692
2023-03-21T02:26:12.089Z,3.6308
2023-03-21T02:27:13.528Z,3.6385
2023-03-21T02:28:14.956Z,3.3846
2023-03-21T02:29:17.736Z,3.0385
2023-03-21T02:30:28.247Z,3.6538
2023-03-21T02:31:19.317Z,3.9846
2023-03-21T02:32:35.018Z,3.6077
2023-03-21T02:33:22.150Z,3.5692
2023-03-21T02:34:23.588Z,3.9385
2023-03-21T02:35:25.025Z,4.3615
2023-03-21T02:36:26.543Z,3.4923
2023-03-21T02:37:36.753Z,3.6154
2023-03-21T02:38:29.380Z,3.1308
2023-03-21T02:39:30.792Z,3.8000
2023-03-21T02:40:32.247Z,3.7462
2023-03-21T02:41:40.133Z,4.4923
2023-03-21T02:42:35.138Z,3.7615
2023-03-21T02:43:36.543Z,3.0692
2023-03-21T02:44:37.994Z,2.9385
2023-03-21T02:45:39.424Z,3.2308
2023-03-21T02:46:45.653Z,3.1385
2023-03-21T02:47:42.333Z,3.5231
2023-03-21T02:48:50.672Z,3.1846
2023-03-21T02:49:45.193Z,3.6923
2023-03-21T02:50:46.622Z,4.0615
2023-03-21T02:51:48.105Z,3.7308
2023-03-21T02:52:49.490Z,3.2385
2023-03-21T02:54:04.574Z,3.4077
2023-03-21T02:54:52.368Z,4.0000
2023-03-21T02:55:53.807Z,3.5308
2023-03-21T02:56:55.380Z,3.4615
2023-03-21T02:57:56.870Z,4.1615
2023-03-21T02:58:58.174Z,3.3231
2023-03-21T03:00:07.524Z,3.7538
2023-03-21T03:01:01.020Z,3.5846
2023-03-21T03:02:02.459Z,3.9692
2023-03-21T03:03:09.869Z,3.3538
2023-03-21T03:04:05.345Z,3.2846
2023-03-21T03:05:18.005Z,4.0000
2023-03-21T03:06:08.225Z,3.7231
2023-03-21T03:07:09.624Z,3.9231
2023-03-21T03:08:11.105Z,3.7769
2023-03-21T03:09:12.511Z,3.8692
2023-03-21T03:10:13.943Z,4.3846
2023-03-21T03:11:15.373Z,3.3462
2023-03-21T03:12:16.827Z,2.9769
2023-03-21T03:13:18.254Z,3.6077
2023-03-21T03:15:21.128Z,3.4538
2023-03-21T03:16:22.570Z,4.0308
2023-03-21T03:17:24.013Z,3.2846
2023-03-21T03:18:25.454Z,3.5692
2023-03-21T03:19:26.885Z,3.6077
2023-03-21T03:20:28.323Z,3.3538
2023-03-21T03:21:29.755Z,3.4692
2023-03-21T03:22:31.197Z,3.4615
2023-03-21T03:23:32.631Z,3.4846
2023-03-21T03:24:34.093Z,3.4385
2023-03-21T03:25:42.605Z,3.4077
2023-03-21T03:26:36.961Z,3.9077
2023-03-21T03:27:38.380Z,3.3692
2023-03-21T03:28:39.840Z,2.7615
2023-03-21T03:29:41.263Z,2.9385
2023-03-21T03:30:54.070Z,3.1462
2023-03-21T03:31:44.206Z,3.4462
2023-03-21T03:32:45.577Z,3.2154
2023-03-21T03:33:47.009Z,2.9692
2023-03-21T03:34:48.451Z,2.9308
2023-03-21T03:36:02.568Z,3.5846
2023-03-21T03:36:51.372Z,3.1692
2023-03-21T03:37:52.746Z,3.3846
2023-03-21T03:38:54.185Z,3.4769
2023-03-21T03:39:55.617Z,3.5538
2023-03-21T03:40:57.061Z,3.5769
2023-03-21T03:42:27.199Z,3.0385
2023-03-21T03:42:59.929Z,3.1077
2023-03-21T03:44:01.363Z,2.9154
2023-03-21T03:45:02.810Z,3.4462
2023-03-21T03:46:04.234Z,3.3077
2023-03-21T03:47:05.691Z,3.1692
2023-03-21T03:48:07.155Z,2.9692
2023-03-21T03:49:08.566Z,2.9769
2023-03-21T03:50:09.983Z,3.0769
2023-03-21T03:51:11.425Z,4.1538
2023-03-21T03:52:12.867Z,3.1692
2023-03-21T03:53:18.358Z,3.1923
2023-03-21T03:54:15.726Z,3.1385
2023-03-21T03:55:17.166Z,3.7615
2023-03-21T03:56:18.597Z,3.6000
2023-03-21T03:57:20.046Z,3.2231
2023-03-21T03:58:24.252Z,2.9385
2023-03-21T03:59:22.902Z,3.0462
2023-03-21T04:00:24.329Z,3.5385
2023-03-21T04:01:25.768Z,2.8923
2023-03-21T04:02:27.289Z,3.1308
2023-03-21T04:03:32.416Z,3.3769
2023-03-21T04:04:30.147Z,3.5615
2023-03-21T04:05:31.513Z,3.0077
2023-03-21T04:06:32.944Z,3.3077
2023-03-21T04:07:34.385Z,4.7077
2023-03-21T04:08:35.854Z,3.0231
2023-03-21T04:09:44.071Z,3.1231
2023-03-21T04:10:39.099Z,2.6769
2023-03-21T04:11:40.122Z,2.9462
2023-03-21T04:12:41.572Z,3.0308
2023-03-21T04:13:43.047Z,3.1615
2023-03-21T04:14:46.976Z,3.7000
2023-03-21T04:15:46.072Z,3.4231
2023-03-21T04:16:47.307Z,3.7231
2023-03-21T04:17:48.719Z,3.2462
2023-03-21T04:18:50.170Z,2.9538
2023-03-21T04:19:55.476Z,2.9615
2023-03-21T04:20:53.031Z,3.3077
2023-03-21T04:21:54.455Z,4.9000
2023-03-21T04:22:55.893Z,3.4231
2023-03-21T04:23:57.323Z,3.3462
2023-03-21T04:25:00.517Z,3.3385
2023-03-21T04:26:00.189Z,3.7692
2023-03-21T04:27:01.642Z,3.5462
2023-03-21T04:28:03.045Z,3.0231
2023-03-21T04:29:04.484Z,3.0538
2023-03-21T04:30:05.911Z,2.8462
2023-03-21T04:31:16.098Z,3.7846
2023-03-21T04:32:08.820Z,3.0462
2023-03-21T04:33:10.218Z,3.4538
2023-03-21T04:34:11.641Z,2.7154
2023-03-21T04:35:13.088Z,3.2846
2023-03-21T04:36:14.546Z,3.0692
2023-03-21T04:37:15.957Z,3.7308
2023-03-21T04:38:17.477Z,3.0692
2023-03-21T04:39:18.918Z,3.2000
2023-03-21T04:40:20.367Z,3.0462
2023-03-21T04:41:21.801Z,3.7538
2023-03-21T04:42:23.210Z,2.9923
2023-03-21T04:43:24.656Z,3.1154
2023-03-21T04:44:26.082Z,3.0385
2023-03-21T04:45:27.527Z,3.3769
2023-03-21T04:46:28.968Z,3.0308
2023-03-21T04:47:30.396Z,3.2077
2023-03-21T04:48:31.831Z,4.2000
2023-03-21T04:49:33.287Z,3.3000
2023-03-21T04:50:34.921Z,2.6846
2023-03-21T04:51:36.140Z,3.7846
2023-03-21T04:52:37.588Z,3.8769
2023-03-21T04:53:39.019Z,3.3231
2023-03-21T04:54:40.450Z,4.0231
2023-03-21T04:55:41.885Z,3.3769
2023-03-21T04:56:43.329Z,3.0462
2023-03-21T04:57:44.772Z,3.2692
2023-03-21T04:58:46.191Z,3.5000
2023-03-21T04:59:47.640Z,4.1692
2023-03-21T05:00:49.090Z,3.9615
2023-03-21T05:01:50.498Z,3.4000
2023-03-21T05:02:51.929Z,3.3385
2023-03-21T05:03:53.382Z,4.9308
2023-03-21T05:04:54.794Z,3.3385
2023-03-21T05:05:56.241Z,3.7846
2023-03-21T05:06:57.664Z,3.5846
2023-03-21T05:07:59.106Z,3.2462
2023-03-21T05:09:00.555Z,3.4385
2023-03-21T05:10:02.776Z,3.3077
2023-03-21T05:11:03.408Z,3.7615
2023-03-21T05:12:04.864Z,3.3154
2023-03-21T05:13:06.299Z,3.2231
2023-03-21T05:14:07.725Z,3.7154
2023-03-21T05:15:09.194Z,2.9077
2023-03-21T05:16:10.604Z,2.9385
2023-03-21T05:17:12.044Z,3.0538
2023-03-21T05:18:13.463Z,2.6615
2023-03-21T05:19:14.903Z,3.5538
2023-03-21T05:20:16.380Z,3.8000
2023-03-21T05:21:17.768Z,3.1231
2023-03-21T05:22:19.213Z,2.8308
2023-03-21T05:23:20.636Z,2.9692
2023-03-21T05:24:22.079Z,3.3769
2023-03-21T05:25:23.513Z,2.9692
2023-03-21T05:26:24.956Z,3.3308
2023-03-21T05:27:26.390Z,3.3154
2023-03-21T05:28:27.825Z,2.9692
2023-03-21T05:29:29.260Z,3.2615
2023-03-21T05:30:30.705Z,2.9538
2023-03-21T05:31:32.143Z,2.5692
2023-03-21T05:32:33.575Z,3.2538
2023-03-21T05:33:35.000Z,3.4154
2023-03-21T05:34:36.442Z,3.1615
2023-03-21T05:35:38.141Z,2.9077
2023-03-21T05:36:39.349Z,3.5000
2023-03-21T05:37:40.753Z,2.7385
2023-03-21T05:38:42.192Z,2.6923
2023-03-21T05:39:43.623Z,2.5923
2023-03-21T05:40:45.061Z,2.8462
2023-03-21T05:41:46.521Z,3.2154
2023-03-21T05:42:47.927Z,2.9462
2023-03-21T05:43:49.370Z,2.6308
2023-03-21T05:44:50.794Z,3.4308
2023-03-21T05:45:52.267Z,3.2615
2023-03-21T05:46:53.683Z,3.0308
2023-03-21T05:47:55.129Z,4.6385
2023-03-21T05:48:56.541Z,4.7462
2023-03-21T05:49:57.971Z,4.2308
2023-03-21T05:50:59.436Z,4.1846
2023-03-21T05:52:00.860Z,5.3615
2023-03-21T05:53:02.314Z,3.4462
2023-03-21T05:54:03.757Z,3.3846
2023-03-21T05:55:05.174Z,3.3538
2023-03-21T05:56:06.614Z,4.2692
2023-03-21T05:57:08.062Z,4.0308
2023-03-21T05:58:09.478Z,4.2000
2023-03-21T05:59:10.919Z,3.8154
2023-03-21T06:00:12.369Z,3.8769
2023-03-21T06:01:13.791Z,3.8077
2023-03-21T06:02:15.311Z,3.7385
2023-03-21T06:03:16.663Z,3.9231
2023-03-21T06:04:18.140Z,3.6000
2023-03-21T06:05:19.531Z,2.9615
2023-03-21T06:06:20.972Z,2.8923
2023-03-21T06:07:22.406Z,3.3154
2023-03-21T06:08:23.833Z,3.7231
2023-03-21T06:09:25.274Z,3.6615
2023-03-21T06:10:26.702Z,3.5692
2023-03-21T06:11:28.166Z,7.4923
2023-03-21T06:12:29.580Z,10.7000
2023-03-21T06:13:31.018Z,9.9308
2023-03-21T06:14:32.459Z,9.1538
2023-03-21T06:15:33.880Z,10.9538
2023-03-21T06:16:35.323Z,10.9154
2023-03-21T06:17:36.754Z,8.6923
2023-03-21T06:18:38.196Z,8.6769
2023-03-21T06:19:39.630Z,9.3154
2023-03-21T06:20:41.056Z,7.0077
2023-03-21T06:21:42.520Z,7.0231
2023-03-21T06:22:43.934Z,5.7692
2023-03-21T06:23:45.376Z,5.7462
2023-03-21T06:24:46.802Z,7.9231
2023-03-21T06:25:48.253Z,8.1231
2023-03-21T06:26:49.683Z,6.9462
2023-03-21T06:27:51.119Z,7.5308
2023-03-21T06:28:52.540Z,6.0077
2023-03-21T06:29:53.987Z,5.8462
2023-03-21T06:30:55.501Z,6.9154
2023-03-21T06:31:56.867Z,6.5231
2023-03-21T06:32:58.327Z,4.9077
2023-03-21T06:33:59.733Z,4.9385
2023-03-21T06:35:01.168Z,5.8615
2023-03-21T06:36:02.621Z,6.2462
2023-03-21T06:37:04.051Z,3.8769
2023-03-21T06:38:05.516Z,4.9923
2023-03-21T06:39:06.917Z,6.1077
2023-03-21T06:40:08.364Z,4.9769
2023-03-21T06:41:09.780Z,5.9077
2023-03-21T06:42:11.233Z,4.4538
2023-03-21T06:43:12.669Z,4.5692
2023-03-21T06:44:14.144Z,4.9923
2023-03-21T06:45:15.542Z,5.0077
2023-03-21T06:46:17.005Z,5.0769
2023-03-21T06:47:18.426Z,5.1154
2023-03-21T06:48:19.954Z,4.7077
2023-03-21T06:49:21.301Z,4.3846
2023-03-21T06:50:22.732Z,5.0154
2023-03-21T06:51:24.169Z,4.3538
2023-03-21T06:52:25.607Z,4.1154
2023-03-21T06:53:27.038Z,4.8615
2023-03-21T06:54:28.475Z,6.7769
2023-03-21T06:55:29.896Z,5.2846
2023-03-21T06:56:31.337Z,5.6769
2023-03-21T06:57:32.777Z,4.5923
2023-03-21T06:58:34.224Z,4.6846
2023-03-21T06:59:35.641Z,4.7923
2023-03-21T07:00:37.121Z,4.6923
2023-03-21T07:01:38.538Z,3.6538
2023-03-21T07:02:40.040Z,4.0615
2023-03-21T07:03:41.397Z,4.6692
2023-03-21T07:04:42.836Z,5.4077
2023-03-21T07:05:44.262Z,3.6462
2023-03-21T07:06:45.729Z,4.4385
2023-03-21T07:07:47.143Z,4.2000
2023-03-21T07:08:48.585Z,7.9308
2023-03-21T07:09:50.018Z,4.8923
2023-03-21T07:10:51.451Z,4.9231
2023-03-21T07:11:52.903Z,5.9154
2023-03-21T07:12:54.339Z,6.8538
2023-03-21T07:13:55.780Z,6.1846
2023-03-21T07:14:57.210Z,5.3231
2023-03-21T07:15:58.660Z,5.3308
2023-03-21T07:17:00.185Z,7.0154
2023-03-21T07:18:01.527Z,5.7231
2023-03-21T07:19:02.974Z,4.5231
2023-03-21T07:20:04.413Z,6.7538
2023-03-21T07:21:05.856Z,7.1462
2023-03-21T07:22:07.322Z,6.1077
2023-03-21T07:23:08.741Z,4.3692
2023-03-21T07:24:10.170Z,6.0769
2023-03-21T07:25:11.687Z,5.9538
2023-03-21T07:26:13.069Z,5.9923
2023-03-21T07:27:14.508Z,5.2154
2023-03-21T07:28:15.923Z,4.9846
2023-03-21T07:29:17.387Z,4.8154
2023-03-21T07:30:18.810Z,5.1154
2023-03-21T07:31:20.277Z,7.2000
2023-03-21T07:32:21.683Z,6.9385
2023-03-21T07:33:23.157Z,10.3538
2023-03-21T07:34:24.554Z,12.8692
2023-03-21T07:35:26.021Z,15.3077
2023-03-21T07:36:27.436Z,15.9231
2023-03-21T07:37:28.906Z,15.2385
2023-03-21T07:38:30.318Z,15.0308
2023-03-21T07:39:31.761Z,12.9692
2023-03-21T07:40:33.215Z,16.6769
2023-03-21T07:41:34.641Z,18.9462
2023-03-21T07:42:36.090Z,15.6308
2023-03-21T07:43:39.211Z,16.3231
2023-03-21T17:02:34.837Z,5.8857
2023-03-21T17:03:36.294Z,7.1077
2023-03-21T17:04:37.754Z,5.9615
2023-03-21T17:05:39.145Z,5.4692
2023-03-21T17:06:40.575Z,5.8308
2023-03-21T17:07:42.005Z,6.2846
2023-03-21T17:08:43.439Z,5.8385
2023-03-21T17:09:44.880Z,6.5538
2023-03-21T17:10:46.314Z,5.5385
2023-03-21T17:11:47.739Z,5.9769
2023-03-21T17:12:49.186Z,6.6308
2023-03-21T17:13:50.601Z,5.6462
2023-03-21T17:14:52.038Z,6.7231
2023-03-21T17:15:53.524Z,5.9769
2023-03-21T17:16:54.983Z,5.7538
2023-03-21T17:17:56.341Z,5.8923
2023-03-21T17:18:57.785Z,4.9538
2023-03-21T17:19:59.244Z,5.5923
2023-03-21T17:21:00.667Z,6.2846
2023-03-21T17:22:02.082Z,6.6231
2023-03-21T17:23:03.525Z,5.5462
2023-03-21T17:24:04.964Z,6.0000
2023-03-21T17:25:06.388Z,5.2308
2023-03-21T17:26:07.821Z,5.9538
2023-03-21T17:27:09.262Z,6.5385
2023-03-21T17:28:10.701Z,4.7308
2023-03-21T17:29:12.126Z,5.9769
2023-03-21T17:30:13.626Z,6.2154
2023-03-21T17:31:15.058Z,4.2769
2023-03-21T17:32:16.431Z,4.7846
2023-03-21T17:33:17.880Z,6.3231
2023-03-21T17:34:19.288Z,5.8923
2023-03-21T17:35:20.751Z,6.4231
2023-03-21T17:36:22.142Z,6.9769
2023-03-21T17:37:23.594Z,8.2615
2023-03-21T17:38:25.009Z,6.2692
2023-03-21T17:39:26.442Z,6.0923
2023-03-21T17:40:27.873Z,4.6154
2023-03-21T17:41:29.309Z,6.1385
2023-03-21T17:42:30.737Z,7.0077
2023-03-21T17:43:32.178Z,6.5462
2023-03-21T17:44:33.590Z,6.2231
2023-03-21T17:45:35.027Z,6.4000
2023-03-21T17:46:36.513Z,5.7231
2023-03-21T17:47:37.913Z,7.9308
2023-03-21T17:48:39.333Z,5.2231
2023-03-21T17:49:40.759Z,5.7692
2023-03-21T17:50:42.185Z,5.8231
2023-03-21T17:51:43.632Z,6.6615
2023-03-21T17:52:45.058Z,5.7000
2023-03-21T17:53:46.487Z,5.3000
2023-03-21T17:54:47.951Z,5.2308
2023-03-21T17:55:49.377Z,5.4538
2023-03-21T17:56:50.801Z,6.4769
2023-03-21T17:57:52.239Z,4.5231
2023-03-21T17:58:53.665Z,4.3077
2023-03-21T17:59:55.108Z,5.1077
2023-03-21T18:00:56.546Z,4.8538
2023-03-21T18:01:58.023Z,4.9769
2023-03-21T18:02:59.490Z,5.3615
2023-03-21T18:04:00.889Z,5.4538
2023-03-21T18:05:02.396Z,5.3462
2023-03-21T18:06:03.736Z,5.4154
2023-03-21T18:07:06.919Z,5.1462
2023-03-21T18:08:11.037Z,4.0692
2023-03-21T18:09:08.024Z,5.4231
2023-03-21T18:10:09.467Z,5.0769
2023-03-21T18:11:10.899Z,5.7077
2023-03-21T18:12:12.329Z,5.4692
2023-03-21T18:13:13.763Z,5.3769
2023-03-21T18:14:18.081Z,5.3769
2023-03-21T18:15:18.917Z,4.8692
2023-03-21T18:16:18.112Z,5.9538
2023-03-21T18:17:19.478Z,5.2538
2023-03-21T18:18:20.918Z,4.7538
2023-03-21T18:19:22.344Z,3.9769
2023-03-21T18:20:24.258Z,5.1231
2023-03-21T18:21:26.296Z,4.8000
2023-03-21T18:22:26.648Z,4.6231
2023-03-21T18:23:28.079Z,4.4615
2023-03-21T18:24:29.519Z,4.2538
2023-03-21T18:25:30.934Z,4.7769
2023-03-21T18:26:32.429Z,5.0615
2023-03-21T18:27:35.301Z,4.6000
2023-03-21T18:28:35.228Z,4.8846
2023-03-21T18:31:00.286Z,5.2462
2023-03-21T18:31:39.529Z,4.9692
2023-03-21T18:32:41.015Z,5.7385
2023-03-21T18:33:42.389Z,5.3231
2023-03-21T18:34:43.831Z,6.1000
2023-03-21T18:35:46.374Z,6.0846
2023-03-21T18:36:49.141Z,5.2077
2023-03-21T18:37:48.134Z,4.9385
2023-03-21T18:38:49.538Z,4.9769
2023-03-21T18:39:50.976Z,5.0846
2023-03-21T18:40:52.395Z,5.9077
2023-03-21T18:41:57.762Z,7.0615
2023-03-21T18:44:05.438Z,5.1692
2023-03-21T18:44:58.189Z,6.2385
2023-03-21T18:45:59.571Z,6.7462
2023-03-21T18:47:01.018Z,6.0308
2023-03-21T18:48:02.463Z,4.8154
2023-03-21T18:49:33.941Z,4.5923
2023-03-21T18:50:14.125Z,5.7846
2023-03-21T18:51:06.718Z,5.0538
2023-03-21T18:52:08.175Z,6.0385
2023-03-21T18:53:09.572Z,4.5769
2023-03-21T18:54:11.013Z,5.1231
2023-03-21T18:55:12.441Z,5.2692
2023-03-21T18:56:40.797Z,4.5769
2023-03-21T18:58:16.744Z,5.8923
2023-03-21T18:59:18.171Z,4.9769
2023-03-21T19:00:19.646Z,5.4923
2023-03-21T19:01:21.165Z,4.9154
2023-03-21T19:02:22.633Z,4.9462
2023-03-21T19:03:35.893Z,4.4154
2023-03-21T19:04:30.045Z,4.7308
2023-03-21T19:05:26.836Z,4.6154
2023-03-21T19:06:28.237Z,4.8615
2023-03-21T19:07:29.644Z,4.8077
2023-03-21T19:08:31.120Z,4.6308
2023-03-21T19:09:32.499Z,5.4000
2023-03-21T19:10:33.944Z,4.7538
2023-03-21T19:11:35.395Z,4.9769
2023-03-21T19:12:36.822Z,5.7385
2023-03-21T19:13:38.224Z,4.5385
2023-03-21T19:14:39.662Z,4.0308
2023-03-21T19:15:41.525Z,4.6615
2023-03-21T19:17:08.476Z,4.5231
2023-03-21T19:18:54.519Z,4.5846
2023-03-21T19:19:46.908Z,5.1154
2023-03-21T19:20:48.264Z,5.0077
2023-03-21T19:21:49.692Z,4.9154
2023-03-21T19:22:51.141Z,6.1538
2023-03-21T19:24:25.259Z,6.7077
2023-03-21T19:24:54.003Z,5.9769
2023-03-21T19:25:55.420Z,6.5308
2023-03-21T19:26:56.858Z,5.9308
2023-03-21T19:27:58.300Z,5.5692
2023-03-21T19:28:59.729Z,4.4692
2023-03-21T19:30:13.466Z,5.5462
2023-03-21T19:31:02.590Z,4.6538
2023-03-21T19:32:04.088Z,5.2000
2023-03-21T19:33:05.472Z,4.5154
2023-03-21T19:34:06.889Z,4.9077
2023-03-21T19:35:08.366Z,5.3538
2023-03-21T19:36:20.930Z,4.8385
2023-03-21T19:37:11.240Z,5.1846
2023-03-21T19:38:12.633Z,4.9615
2023-03-21T19:39:14.072Z,5.1615
2023-03-21T19:40:15.511Z,4.5538
2023-03-21T19:41:16.959Z,5.0769
2023-03-21T19:42:18.474Z,5.3923
2023-03-21T19:43:32.270Z,4.6385
2023-03-21T19:44:21.249Z,5.2538
2023-03-21T19:45:22.679Z,4.9385
2023-03-21T19:46:24.113Z,4.8769
2023-03-21T19:47:25.562Z,4.3231
2023-03-21T19:48:27.179Z,4.6077
2023-03-21T19:49:48.535Z,5.1154
2023-03-21T19:51:24.467Z,5.3769
2023-03-21T19:51:31.582Z,5.6538
2023-03-21T19:52:32.731Z,4.6615
2023-03-21T19:53:34.163Z,4.9154
2023-03-21T19:54:35.591Z,4.7538
2023-03-21T19:55:37.030Z,4.7769
2023-03-21T19:56:38.451Z,5.9231
2023-03-21T19:57:39.939Z,5.2615
2023-03-21T19:58:41.330Z,5.1308
2023-03-21T19:59:42.775Z,5.9385
2023-03-21T20:00:44.205Z,4.7769
2023-03-21T20:01:45.998Z,4.7154
2023-03-21T20:02:47.129Z,4.4077
2023-03-21T20:03:48.573Z,4.7769
2023-03-21T20:04:49.950Z,5.0308
2023-03-21T20:05:51.461Z,4.7538
2023-03-21T20:06:52.817Z,4.8923
2023-03-21T20:07:54.265Z,4.7385
2023-03-21T20:09:41.213Z,4.9385
2023-03-21T20:09:57.576Z,7.4923
2023-03-21T20:10:58.562Z,7.4923
2023-03-21T20:12:00.012Z,13.1077
2023-03-21T20:13:01.450Z,12.1462
2023-03-21T20:14:02.898Z,9.9077
2023-03-21T20:15:16.661Z,7.4615
2023-03-21T20:16:05.791Z,8.5846
2023-03-21T20:17:07.239Z,7.2308
2023-03-21T20:18:08.632Z,7.8154
2023-03-21T20:19:10.073Z,6.3000
2023-03-21T20:20:11.508Z,6.8538
2023-03-21T20:21:17.667Z,6.0615
2023-03-21T20:22:24.515Z,5.7615
2023-03-21T20:23:16.093Z,5.0308
2023-03-21T20:24:17.240Z,6.7769
2023-03-21T20:25:18.665Z,5.7154
2023-03-21T20:26:20.098Z,5.5154
2023-03-21T20:27:21.524Z,5.4923
2023-03-21T20:28:27.128Z,6.3538
2023-03-21T20:30:25.841Z,7.3231
2023-03-21T20:31:27.391Z,5.8769
2023-03-21T20:32:28.713Z,6.5769
2023-03-21T20:33:30.146Z,6.7462
2023-03-21T20:34:31.598Z,5.9538
2023-03-21T20:36:23.681Z,6.3923
2023-03-21T20:36:40.442Z,5.5923
2023-03-21T20:37:35.954Z,5.6000
2023-03-21T20:38:37.333Z,5.4769
2023-03-21T20:39:38.753Z,6.0231
2023-03-21T20:40:40.537Z,5.0846
2023-03-21T20:41:41.629Z,5.5154
2023-03-21T20:42:43.078Z,5.4000
2023-03-21T20:44:57.940Z,4.9462
2023-03-21T20:45:47.377Z,5.0308
2023-03-21T20:46:48.902Z,6.0538
2023-03-21T20:47:50.278Z,5.0385
2023-03-21T20:48:51.717Z,4.8231
2023-03-21T20:49:53.126Z,5.7154
2023-03-21T20:50:58.883Z,5.2000
2023-03-21T20:52:49.823Z,5.5308
2023-03-21T20:53:06.957Z,5.9769
2023-03-21T20:53:58.941Z,4.9385
2023-03-21T20:55:00.340Z,5.1923
2023-03-21T20:56:01.757Z,5.5231
2023-03-21T20:57:03.402Z,5.7538
2023-03-21T20:58:26.761Z,7.7692
2023-03-21T20:59:17.398Z,7.4077
2023-03-21T21:00:07.492Z,8.1000
2023-03-21T21:01:08.996Z,11.3308
2023-03-21T21:02:10.362Z,9.4538
2023-03-21T21:03:11.894Z,11.8154
2023-03-21T21:04:15.170Z,17.9769
2023-03-21T21:05:27.456Z,25.4846
2023-03-21T21:06:16.231Z,15.7769
2023-03-21T21:07:17.586Z,15.9154
2023-03-21T21:08:19.000Z,16.8308
2023-03-21T21:09:20.433Z,13.5000
2023-03-21T21:10:22.368Z,16.9462
2023-03-21T21:12:24.688Z,11.9846
2023-03-21T21:13:26.099Z,12.1923
2023-03-21T21:14:27.544Z,13.4154
2023-03-21T21:15:28.974Z,11.4692
2023-03-21T21:16:30.421Z,13.6538
2023-03-21T21:17:54.483Z,15.1615
2023-03-21T21:18:33.229Z,14.1077
2023-03-21T21:19:34.661Z,16.8000
2023-03-21T21:20:36.420Z,18.0000
2023-03-21T21:21:37.522Z,18.7077
2023-03-21T21:22:39.327Z,15.4077
2023-03-21T21:23:40.339Z,18.2615
2023-03-21T21:24:41.752Z,19.5769
2023-03-21T21:25:43.196Z,16.8308
2023-03-21T21:26:44.631Z,15.6615
2023-03-21T21:27:46.034Z,13.7615
2023-03-21T21:28:47.457Z,14.5000
2023-03-21T21:29:48.888Z,13.6000
2023-03-21T21:30:50.458Z,12.4462
2023-03-21T21:31:51.750Z,14.2385
2023-03-21T21:32:53.156Z,15.5923
2023-03-21T21:33:54.605Z,12.9385
2023-03-21T21:34:56.033Z,16.0538
2023-03-21T21:35:57.502Z,12.2231
2023-03-21T21:36:58.917Z,12.3308
2023-03-21T21:38:00.301Z,13.3538
2023-03-21T21:39:01.718Z,10.2846
2023-03-21T21:40:03.155Z,12.9615
2023-03-21T21:41:04.566Z,12.9077
2023-03-21T21:42:05.993Z,9.8615
2023-03-21T21:43:07.420Z,11.2308
2023-03-21T21:44:08.849Z,9.2615
2023-03-21T21:45:10.359Z,11.0154
2023-03-21T21:46:11.742Z,10.8846
2023-03-21T21:47:13.131Z,11.5385
2023-03-21T21:48:14.572Z,11.6000
2023-03-21T21:49:15.976Z,10.4385
2023-03-21T21:50:17.406Z,10.2077
2023-03-21T21:51:18.832Z,9.1846
2023-03-21T21:52:20.276Z,9.3231
2023-03-21T21:53:21.683Z,9.1846
2023-03-21T21:54:23.109Z,10.8769
2023-03-21T21:55:24.529Z,8.7077
2023-03-21T21:56:25.966Z,9.2615
2023-03-21T21:57:27.401Z,9.5615
2023-03-21T21:58:28.822Z,9.4154
2023-03-21T21:59:30.236Z,7.9846
2023-03-21T22:00:31.664Z,8.8923
2023-03-21T22:01:33.101Z,10.1692
2023-03-21T22:02:34.519Z,9.7846
2023-03-21T22:03:35.928Z,8.6077
2023-03-21T22:04:37.357Z,8.6231
2023-03-21T22:05:38.761Z,10.5846
2023-03-21T22:06:40.185Z,9.3077
2023-03-21T22:07:41.626Z,9.9692
2023-03-21T22:08:43.029Z,9.9154
2023-03-21T22:09:44.462Z,10.3615
2023-03-21T22:10:45.878Z,8.3000